Portada
METAR-TAF:

METAR-TAF

Aeropuertos :

El Hierro, España

Aeropuerto de El Hierro

latitud: 27-49N, longitud: 017-53W, altitud: 32 m

Observación

El informe se hizo hace 24 minutos, a las 22:30 UTC
Viento 14 kt del norte-noroeste
Temperatura 23°C
Humedad 89%
Presión 1016 hPa
Visibilidad 10 km o más

METAR: GCHI 202230Z AUTO 33014KT 9999 BKN009/// 23/21 Q1016

Hora: 23:54 (22:54 UTC)

Pronóstico

El informe se hizo hace 2 horas y 54 minutos, a las 20:00 UTC
Pronóstico válido del 20 a las 21 UTC al 21 a las 21 UTC
Viento 18 kt del norte
Visibilidad 10 km o más
Nubes dispersas a una altura de 2000 ft
Evolucionando progresivamente
del 20 a las 22 UTC al 21 a las 01 UTC
Viento 8 kt del norte-noroeste

TAF: GCHI 202000Z 2021/2121 35018KT 9999 SCT020 TX27/2113Z TN23/2106Z BECMG 2022/2101 34008KT

Observaciones y pronósticos meteorológicos de más de 4000 aeropuertos (mensajes METAR y TAF).

Los puntos amarillos y rojos representan las estaciones disponibles.

Ponga el ratón en el punto deseado para ver el nombre de la estación.

Haga clic para ver las observaciones y los pronósticos meteorológicos.

Para cambiar el mapa : haga clic en los botones verdes con una cruz de color negro para hacer un zoom, en el botón verde con un guión para alejar o en las flechas verdes para mapas adyacentes.


METAR-TAF: